Time;durP1;ratioP1;P1;durP2;ratioP2;P2;SDS_P1;SDS_P2;PMS_P1;PMS_P2;Temp;Humidity;BMP_temperature;BMP_pressure;BME280_temperature;BME280_humidity;BME280_pressure;Samples;Min_cycle;Max_cycle;Signal;HPM_P1;HPM_P2
2023/09/08 00:02:03;;;;;;;4.85;4.00;;;16.30;99.90;;;;;;5015037;28;20226;-66
2023/09/08 00:04:29;;;;;;;5.82;4.15;;;16.30;99.90;;;;;;5015036;28;20210;-65
2023/09/08 00:06:56;;;;;;;5.35;4.30;;;16.40;99.90;;;;;;5013498;28;20231;-66
2023/09/08 00:09:23;;;;;;;5.20;4.07;;;16.40;99.90;;;;;;5013128;28;20211;-66
2023/09/08 00:11:52;;;;;;;8.13;4.57;;;16.40;99.90;;;;;;5012935;28;20203;-66
2023/09/08 00:14:19;;;;;;;5.65;4.20;;;16.40;99.90;;;;;;5012966;28;20203;-66
2023/09/08 00:16:45;;;;;;;4.60;4.13;;;16.40;99.90;;;;;;5012251;28;20656;-66
2023/09/08 00:19:12;;;;;;;6.57;4.30;;;16.30;99.90;;;;;;5012848;28;20222;-65
2023/09/08 00:21:39;;;;;;;5.88;4.05;;;16.30;99.90;;;;;;5012172;28;20247;-66
2023/09/08 00:24:06;;;;;;;6.10;3.80;;;16.30;99.90;;;;;;5012439;28;20210;-65
2023/09/08 00:26:33;;;;;;;5.97;4.05;;;16.30;99.90;;;;;;5012656;28;20673;-66
2023/09/08 00:29:01;;;;;;;4.40;4.00;;;16.20;99.90;;;;;;5012483;28;20227;-65
2023/09/08 00:31:28;;;;;;;5.40;3.88;;;16.20;99.90;;;;;;5012641;28;20206;-65
2023/09/08 00:33:54;;;;;;;5.80;4.30;;;16.30;99.90;;;;;;5012105;28;20723;-65
2023/09/08 00:36:21;;;;;;;4.60;4.10;;;16.30;99.90;;;;;;5012568;28;20295;-66
2023/09/08 00:38:48;;;;;;;5.00;4.10;;;16.20;99.90;;;;;;5012203;28;20285;-65
2023/09/08 00:41:14;;;;;;;5.82;4.18;;;16.20;99.90;;;;;;5012447;28;20214;-65
2023/09/08 00:43:41;;;;;;;6.78;3.85;;;16.10;99.90;;;;;;5011964;28;20203;-66
2023/09/08 00:46:10;;;;;;;4.20;3.72;;;16.10;99.90;;;;;;5012613;28;20221;-66
2023/09/08 00:48:37;;;;;;;4.65;4.20;;;16.10;99.90;;;;;;5012342;28;20231;-66
2023/09/08 00:51:05;;;;;;;4.82;4.00;;;16.10;99.90;;;;;;5012222;28;20597;-65
2023/09/08 00:53:32;;;;;;;4.00;3.60;;;16.10;99.90;;;;;;5012148;28;20271;-66
2023/09/08 00:56:00;;;;;;;5.90;3.80;;;16.00;99.90;;;;;;5011897;28;20210;-66
2023/09/08 00:58:27;;;;;;;7.00;4.15;;;15.90;99.90;;;;;;5012199;28;20605;-65
2023/09/08 01:00:53;;;;;;;4.70;4.20;;;15.80;99.90;;;;;;5011804;28;20207;-66
2023/09/08 01:03:21;;;;;;;5.65;4.18;;;15.80;99.90;;;;;;5011684;28;20207;-66
2023/09/08 01:05:49;;;;;;;5.20;4.25;;;15.80;99.90;;;;;;5011923;28;20210;-65
2023/09/08 01:08:16;;;;;;;6.85;4.53;;;15.80;99.90;;;;;;5011812;28;20231;-66
2023/09/08 01:10:44;;;;;;;4.78;3.85;;;15.90;99.90;;;;;;5011716;28;20211;-66
2023/09/08 01:13:10;;;;;;;6.78;4.03;;;15.90;99.90;;;;;;5011467;28;20210;-66
2023/09/08 01:15:37;;;;;;;4.93;4.18;;;15.90;99.90;;;;;;5011825;28;20210;-66
2023/09/08 01:18:04;;;;;;;5.35;4.10;;;15.90;99.90;;;;;;5011404;28;20239;-67
2023/09/08 01:20:48;;;;;;;5.65;3.97;;;16.00;99.90;;;;;;5011887;28;20211;-66
2023/09/08 01:23:22;;;;;;;6.90;4.38;;;15.90;99.90;;;;;;5004030;28;20218;-65
2023/09/08 01:25:54;;;;;;;5.45;4.40;;;15.90;99.90;;;;;;5011585;28;20218;-66
2023/09/08 01:28:23;;;;;;;5.13;4.10;;;16.00;99.90;;;;;;5011625;28;20618;-65
2023/09/08 01:30:50;;;;;;;6.93;4.03;;;15.90;99.90;;;;;;5011404;28;20203;-65
2023/09/08 01:33:17;;;;;;;7.10;4.32;;;16.00;99.90;;;;;;5010511;28;20214;-64
2023/09/08 01:35:44;;;;;;;5.10;4.43;;;15.90;99.90;;;;;;5011383;28;20207;-66
2023/09/08 01:38:11;;;;;;;5.30;4.47;;;16.00;99.90;;;;;;5011021;28;20700;-64
2023/09/08 01:40:38;;;;;;;8.45;4.03;;;16.00;99.90;;;;;;5011417;28;20219;-65
2023/09/08 01:43:06;;;;;;;5.07;4.10;;;16.10;99.90;;;;;;5010877;28;20211;-66
2023/09/08 01:45:33;;;;;;;5.40;4.38;;;16.10;99.90;;;;;;5011194;28;20291;-65
2023/09/08 01:48:00;;;;;;;4.95;4.32;;;16.10;99.90;;;;;;5011033;28;20233;-65
2023/09/08 01:50:27;;;;;;;4.63;4.22;;;16.10;99.90;;;;;;5011160;28;20618;-66
2023/09/08 01:52:53;;;;;;;4.82;4.10;;;16.20;99.90;;;;;;5010954;28;20290;-66
2023/09/08 01:55:20;;;;;;;5.78;4.75;;;16.20;99.90;;;;;;5011321;28;20210;-66
2023/09/08 01:57:47;;;;;;;7.25;4.50;;;16.10;99.90;;;;;;5011074;28;20231;-66
2023/09/08 02:00:16;;;;;;;5.22;4.25;;;16.20;99.90;;;;;;5003261;28;20672;-66
2023/09/08 02:02:43;;;;;;;6.80;4.47;;;16.10;99.90;;;;;;5010967;28;20211;-67
2023/09/08 02:05:09;;;;;;;5.32;4.43;;;16.10;99.90;;;;;;5011027;28;20707;-65
2023/09/08 02:07:36;;;;;;;4.47;3.90;;;16.10;99.90;;;;;;5011240;28;20254;-65
2023/09/08 02:10:03;;;;;;;6.63;4.43;;;16.10;99.90;;;;;;5010927;28;20298;-65
2023/09/08 02:12:30;;;;;;;5.00;4.50;;;16.10;99.90;;;;;;5010942;28;20203;-66
2023/09/08 02:14:56;;;;;;;7.75;4.82;;;16.10;99.90;;;;;;5010822;28;20226;-66
2023/09/08 02:17:24;;;;;;;6.57;4.47;;;16.00;99.90;;;;;;5034665;23;20245;-60
2023/09/08 02:19:51;;;;;;;5.95;4.80;;;16.00;99.90;;;;;;5030490;28;20609;-60
2023/09/08 02:22:18;;;;;;;5.85;4.78;;;15.90;99.90;;;;;;5019108;28;20214;-60
2023/09/08 02:24:45;;;;;;;5.35;4.50;;;15.80;99.90;;;;;;5019274;28;20230;-61
2023/09/08 02:27:12;;;;;;;5.57;4.50;;;15.80;99.90;;;;;;5022251;28;20202;-60
2023/09/08 02:29:38;;;;;;;5.28;4.53;;;15.80;99.90;;;;;;5022718;28;20202;-60
2023/09/08 02:32:06;;;;;;;5.35;4.85;;;15.80;99.90;;;;;;5019944;28;20213;-60
2023/09/08 02:34:37;;;;;;;5.13;4.25;;;15.80;99.90;;;;;;5019062;28;20250;-60
2023/09/08 02:37:04;;;;;;;6.35;5.07;;;15.80;99.90;;;;;;5021169;28;20222;-60
2023/09/08 02:39:31;;;;;;;5.40;4.75;;;15.90;99.90;;;;;;5022744;28;20218;-60
2023/09/08 02:41:58;;;;;;;7.00;4.38;;;15.80;99.90;;;;;;5020937;28;20239;-64
2023/09/08 02:44:25;;;;;;;5.07;4.57;;;15.90;99.90;;;;;;5019925;28;20215;-61
2023/09/08 02:46:52;;;;;;;7.32;4.88;;;15.90;99.90;;;;;;5023333;28;20238;-62
2023/09/08 02:49:18;;;;;;;5.70;4.45;;;15.80;99.90;;;;;;5026023;28;20669;-61
2023/09/08 02:51:46;;;;;;;5.07;4.32;;;15.80;99.90;;;;;;5025731;28;20206;-61
2023/09/08 02:54:13;;;;;;;5.85;4.45;;;15.70;99.90;;;;;;5022752;28;20203;-61
2023/09/08 02:56:40;;;;;;;5.53;4.53;;;15.70;99.90;;;;;;5029386;28;20210;-61
2023/09/08 02:59:06;;;;;;;5.03;4.15;;;15.70;99.90;;;;;;5023302;28;20234;-61
2023/09/08 03:01:33;;;;;;;6.63;4.70;;;15.80;99.90;;;;;;5022666;28;20211;-61
2023/09/08 03:04:00;;;;;;;4.88;4.32;;;15.80;99.90;;;;;;5023736;28;20266;-60
2023/09/08 03:06:27;;;;;;;5.18;4.65;;;15.90;99.90;;;;;;5025972;28;20210;-60
2023/09/08 03:08:55;;;;;;;6.93;4.57;;;15.80;99.90;;;;;;5025034;28;20222;-60
2023/09/08 03:11:21;;;;;;;13.55;11.55;;;15.90;99.90;;;;;;5022318;28;20206;-60
2023/09/08 03:13:48;;;;;;;4.72;4.20;;;15.80;99.90;;;;;;5022119;28;20213;-61
2023/09/08 03:16:15;;;;;;;4.70;4.25;;;15.90;99.90;;;;;;5022368;28;20592;-60
2023/09/08 03:18:42;;;;;;;4.82;4.32;;;15.90;99.90;;;;;;5022142;28;20227;-61
2023/09/08 03:21:12;;;;;;;8.00;4.40;;;15.90;99.90;;;;;;5024696;28;20207;-60
2023/09/08 03:23:38;;;;;;;6.28;4.65;;;15.90;99.90;;;;;;5025401;28;20233;-61
2023/09/08 03:26:06;;;;;;;6.93;4.90;;;16.00;99.90;;;;;;5023565;28;20222;-60
2023/09/08 03:28:34;;;;;;;5.03;4.30;;;15.90;99.90;;;;;;5022257;28;20219;-61
2023/09/08 03:31:01;;;;;;;6.13;4.60;;;16.00;99.90;;;;;;5023604;28;20226;-61
2023/09/08 03:33:28;;;;;;;6.88;4.57;;;16.00;99.90;;;;;;5025410;28;20217;-60
2023/09/08 03:35:55;;;;;;;5.53;4.40;;;16.10;99.90;;;;;;5024767;28;20207;-61
2023/09/08 03:38:21;;;;;;;5.22;4.35;;;16.10;99.90;;;;;;5022164;28;20227;-60
2023/09/08 03:40:48;;;;;;;8.57;4.37;;;16.00;99.90;;;;;;5023923;28;20218;-62
2023/09/08 03:43:16;;;;;;;5.00;4.47;;;16.10;99.90;;;;;;5027948;28;20206;-61
2023/09/08 03:45:43;;;;;;;6.07;4.78;;;16.00;99.90;;;;;;5026592;28;20713;-61
2023/09/08 03:48:10;;;;;;;6.35;4.68;;;16.00;99.90;;;;;;5022497;28;20271;-61
2023/09/08 03:50:37;;;;;;;5.05;4.50;;;16.00;99.90;;;;;;5022081;28;20269;-61
2023/09/08 03:53:04;;;;;;;5.18;4.25;;;16.00;99.90;;;;;;5026130;28;20328;-61
2023/09/08 03:55:31;;;;;;;5.35;4.82;;;16.00;99.90;;;;;;5028495;28;20703;-61
2023/09/08 03:57:58;;;;;;;6.90;4.67;;;16.00;99.90;;;;;;5026777;28;20222;-62
2023/09/08 04:00:26;;;;;;;6.55;4.80;;;15.90;99.90;;;;;;5024502;28;20591;-61
2023/09/08 04:02:53;;;;;;;5.78;4.57;;;15.90;99.90;;;;;;5025317;28;20207;-61
2023/09/08 04:05:20;;;;;;;5.70;4.25;;;15.90;99.90;;;;;;5028631;28;20237;-61
2023/09/08 04:07:47;;;;;;;5.85;4.78;;;15.90;99.90;;;;;;5028143;28;20218;-61
2023/09/08 04:10:14;;;;;;;5.57;4.97;;;15.90;99.90;;;;;;5023201;28;20213;-61
2023/09/08 04:12:41;;;;;;;5.43;4.70;;;15.90;99.90;;;;;;5021065;28;20580;-60
2023/09/08 04:15:09;;;;;;;8.25;4.97;;;16.00;99.90;;;;;;5023197;28;20581;-61
2023/09/08 04:17:38;;;;;;;7.60;5.30;;;15.90;99.90;;;;;;5024486;28;20228;-60
2023/09/08 04:20:06;;;;;;;6.60;5.15;;;15.90;99.90;;;;;;5022674;28;20209;-61
2023/09/08 04:22:33;;;;;;;7.82;4.90;;;15.90;99.90;;;;;;5020585;28;20218;-61
2023/09/08 04:24:59;;;;;;;7.28;5.03;;;15.90;99.90;;;;;;5021882;28;20297;-62
2023/09/08 04:27:26;;;;;;;5.32;4.40;;;15.90;99.90;;;;;;5024395;28;20226;-61
2023/09/08 04:29:53;;;;;;;7.32;5.10;;;15.60;99.90;;;;;;5024189;28;20202;-60
2023/09/08 04:32:20;;;;;;;6.22;4.53;;;15.40;99.90;;;;;;5020585;28;20298;-60
2023/09/08 04:34:49;;;;;;;6.53;4.63;;;15.30;99.90;;;;;;5020715;28;20207;-60
2023/09/08 04:37:15;;;;;;;5.78;5.10;;;15.20;99.90;;;;;;5023822;28;20257;-60
2023/09/08 04:39:42;;;;;;;10.45;5.22;;;15.10;99.90;;;;;;5024236;28;20568;-61
2023/09/08 04:42:09;;;;;;;7.65;6.10;;;15.10;99.90;;;;;;5021389;28;20210;-61
2023/09/08 04:44:35;;;;;;;8.18;5.60;;;15.10;99.90;;;;;;5020529;28;20691;-60
2023/09/08 04:47:02;;;;;;;5.95;5.03;;;15.20;99.90;;;;;;5021606;28;20257;-60
2023/09/08 04:49:29;;;;;;;8.87;5.73;;;15.20;99.90;;;;;;5023710;28;20686;-60
2023/09/08 04:51:57;;;;;;;5.90;5.18;;;15.10;99.90;;;;;;5023308;28;20214;-61
2023/09/08 04:54:27;;;;;;;7.00;5.67;;;15.20;99.90;;;;;;5020610;28;20214;-62
2023/09/08 04:56:53;;;;;;;7.07;5.27;;;15.20;99.90;;;;;;5020480;28;20211;-60
2023/09/08 04:59:20;;;;;;;5.72;5.10;;;15.30;99.90;;;;;;5023509;28;20229;-62
2023/09/08 05:01:47;;;;;;;5.93;5.10;;;15.30;99.90;;;;;;5023427;28;20206;-60
2023/09/08 05:04:14;;;;;;;5.85;4.90;;;15.40;99.90;;;;;;5020783;28;20211;-61
2023/09/08 05:06:40;;;;;;;8.10;5.95;;;15.40;99.90;;;;;;5020403;28;20328;-61
2023/09/08 05:09:08;;;;;;;6.95;5.32;;;15.40;99.90;;;;;;5021919;28;20226;-61
2023/09/08 05:11:35;;;;;;;7.03;5.40;;;15.50;99.90;;;;;;5023789;28;20213;-61
2023/09/08 05:14:02;;;;;;;7.40;5.50;;;15.50;99.90;;;;;;5022178;28;20566;-60
2023/09/08 05:16:39;;;;;;;6.05;5.25;;;15.50;99.90;;;;;;5020106;28;20222;-61
2023/09/08 05:19:06;;;;;;;6.63;5.43;;;15.60;99.90;;;;;;5021649;28;20608;-60
2023/09/08 05:21:34;;;;;;;9.60;6.20;;;15.60;99.90;;;;;;5023339;28;20590;-61
2023/09/08 05:24:01;;;;;;;6.57;5.87;;;15.60;99.90;;;;;;5022083;28;20222;-61
2023/09/08 05:26:29;;;;;;;7.37;5.70;;;15.70;99.90;;;;;;5019976;28;20560;-60
2023/09/08 05:28:56;;;;;;;7.33;6.30;;;15.70;99.90;;;;;;5019925;28;20713;-60
2023/09/08 05:31:22;;;;;;;6.50;5.90;;;15.80;99.90;;;;;;5023569;28;20392;-61
2023/09/08 05:33:49;;;;;;;6.23;5.63;;;15.80;99.90;;;;;;5023076;28;20218;-61
2023/09/08 05:36:16;;;;;;;7.82;6.25;;;15.90;99.90;;;;;;5020062;28;20213;-61
2023/09/08 05:38:43;;;;;;;8.63;5.95;;;15.90;99.90;;;;;;5019641;28;20234;-59
2023/09/08 05:41:09;;;;;;;11.00;5.85;;;16.10;99.90;;;;;;5021604;28;20211;-60
2023/09/08 05:43:37;;;;;;;6.68;5.97;;;16.20;99.90;;;;;;5022625;28;20574;-62
2023/09/08 05:46:04;;;;;;;6.95;6.25;;;16.30;99.90;;;;;;5021513;28;20209;-60
2023/09/08 05:48:32;;;;;;;8.55;5.68;;;16.90;99.90;;;;;;5019643;28;20273;-61
2023/09/08 05:50:59;;;;;;;6.38;5.20;;;18.10;99.90;;;;;;5020098;28;20634;-61
2023/09/08 05:53:26;;;;;;;5.32;4.68;;;19.60;99.90;;;;;;5022793;28;20329;-61
2023/09/08 05:55:52;;;;;;;8.13;5.13;;;21.10;99.90;;;;;;5022878;28;20214;-61
2023/09/08 05:58:19;;;;;;;8.75;5.57;;;22.60;99.90;;;;;;5019348;28;20723;-61
2023/09/08 06:00:47;;;;;;;8.18;5.10;;;23.80;99.90;;;;;;5019593;28;20199;-61
2023/09/08 06:03:14;;;;;;;6.18;3.90;;;24.80;99.90;;;;;;5021775;28;20218;-61
2023/09/08 06:05:41;;;;;;;5.75;4.00;;;25.60;99.90;;;;;;5023023;28;20206;-61
2023/09/08 06:08:07;;;;;;;6.72;3.67;;;26.30;99.90;;;;;;5020971;28;20241;-61
2023/09/08 06:10:34;;;;;;;6.45;4.20;;;26.80;99.90;;;;;;5019384;28;20207;-60
2023/09/08 06:13:01;;;;;;;5.05;4.07;;;27.20;99.90;;;;;;5019998;28;20210;-62
2023/09/08 06:15:28;;;;;;;6.18;3.90;;;27.70;99.90;;;;;;5022846;28;20273;-62
2023/09/08 06:17:56;;;;;;;5.85;4.15;;;28.20;99.90;;;;;;5022483;28;20698;-62
2023/09/08 06:20:24;;;;;;;6.40;4.03;;;28.70;99.90;;;;;;5021911;28;20199;-62
2023/09/08 06:22:51;;;;;;;6.07;3.75;;;29.50;99.90;;;;;;5022930;28;20587;-62
2023/09/08 06:25:18;;;;;;;6.65;3.90;;;30.20;99.90;;;;;;5026129;28;20210;-62
2023/09/08 06:27:45;;;;;;;5.43;4.03;;;31.00;99.00;;;;;;5026619;28;20226;-61
2023/09/08 06:30:13;;;;;;;10.05;4.28;;;31.60;96.00;;;;;;5024745;28;20209;-61
2023/09/08 06:32:40;;;;;;;10.05;4.38;;;31.90;94.80;;;;;;5023248;28;20198;-63
2023/09/08 06:35:08;;;;;;;5.20;3.58;;;32.10;93.60;;;;;;5025043;28;20218;-62
2023/09/08 06:37:37;;;;;;;3.88;3.30;;;32.20;92.10;;;;;;5026439;28;20316;-61
2023/09/08 06:40:05;;;;;;;5.82;3.55;;;32.40;92.20;;;;;;5025263;28;20226;-62
2023/09/08 06:42:33;;;;;;;6.18;3.90;;;32.70;91.20;;;;;;5023077;28;20203;-62
2023/09/08 06:45:00;;;;;;;5.75;3.75;;;32.20;90.60;;;;;;5023272;28;20206;-61
2023/09/08 06:47:27;;;;;;;7.50;3.75;;;31.10;91.80;;;;;;5026241;28;20230;-62
2023/09/08 06:49:53;;;;;;;5.40;3.80;;;29.80;93.20;;;;;;5026190;28;20206;-61
2023/09/08 06:52:21;;;;;;;7.13;3.95;;;28.40;95.60;;;;;;5022627;28;20211;-61
2023/09/08 06:54:48;;;;;;;3.80;3.50;;;27.20;97.70;;;;;;5024349;28;20245;-61
2023/09/08 06:57:16;;;;;;;5.75;3.53;;;26.30;99.50;;;;;;5027156;28;20234;-64
2023/09/08 06:59:42;;;;;;;6.93;3.75;;;25.50;99.90;;;;;;5028249;28;20278;-62
2023/09/08 07:02:09;;;;;;;5.03;3.70;;;25.20;99.90;;;;;;5026255;28;20210;-62
2023/09/08 07:04:36;;;;;;;6.60;3.38;;;26.00;99.90;;;;;;5023529;28;20198;-61
2023/09/08 07:07:07;;;;;;;4.43;3.33;;;27.40;99.90;;;;;;5023459;28;20206;-62
2023/09/08 07:09:36;;;;;;;4.05;3.58;;;28.90;98.40;;;;;;5026142;28;20260;-61
2023/09/08 07:12:03;;;;;;;5.20;3.30;;;30.10;95.40;;;;;;5024350;28;20238;-62
2023/09/08 07:14:30;;;;;;;5.50;3.40;;;31.10;93.40;;;;;;5022238;28;20229;-61
2023/09/08 07:16:57;;;;;;;4.53;3.33;;;31.70;92.30;;;;;;5021962;28;20210;-62
2023/09/08 07:19:24;;;;;;;4.18;3.20;;;32.40;90.70;;;;;;5025211;28;20222;-61
2023/09/08 07:21:50;;;;;;;7.00;3.25;;;33.00;88.60;;;;;;5025398;28;20202;-61
2023/09/08 07:24:17;;;;;;;6.47;3.70;;;33.60;85.60;;;;;;5022760;28;20218;-62
2023/09/08 07:26:45;;;;;;;4.03;3.50;;;33.50;85.30;;;;;;5022042;28;20586;-62
2023/09/08 07:29:12;;;;;;;4.80;3.33;;;33.80;83.60;;;;;;5024014;28;20219;-63
2023/09/08 07:31:40;;;;;;;4.80;3.22;;;34.30;81.40;;;;;;5023814;28;20207;-62
2023/09/08 07:34:07;;;;;;;4.07;3.38;;;34.80;78.70;;;;;;5023748;28;20587;-62
2023/09/08 07:36:34;;;;;;;3.80;3.30;;;35.20;77.20;;;;;;5021761;28;20238;-63
2023/09/08 07:39:01;;;;;;;5.75;3.05;;;35.40;75.70;;;;;;5022166;28;20273;-62
2023/09/08 07:41:27;;;;;;;5.07;3.63;;;35.50;74.40;;;;;;5025512;28;20210;-62
2023/09/08 07:43:55;;;;;;;5.20;3.45;;;35.50;73.90;;;;;;5025236;28;20206;-62
2023/09/08 07:46:22;;;;;;;4.93;3.08;;;35.60;73.40;;;;;;5021581;28;20225;-62
2023/09/08 07:48:49;;;;;;;3.83;3.33;;;35.60;72.90;;;;;;5021731;28;20233;-62
2023/09/08 07:51:16;;;;;;;4.03;3.42;;;35.50;72.80;;;;;;5023938;28;20207;-63
2023/09/08 07:53:42;;;;;;;3.45;3.15;;;35.50;72.10;;;;;;5024966;28;20632;-62
2023/09/08 07:56:09;;;;;;;4.07;3.42;;;35.50;71.80;;;;;;5023307;28;20214;-62
2023/09/08 07:58:36;;;;;;;6.97;3.30;;;35.40;71.70;;;;;;5021835;28;20237;-62
2023/09/08 08:01:04;;;;;;;4.15;3.75;;;35.50;71.40;;;;;;5022087;28;20668;-61
2023/09/08 08:03:31;;;;;;;4.97;3.67;;;35.30;72.00;;;;;;5024531;28;20206;-61
2023/09/08 08:05:58;;;;;;;5.25;3.78;;;34.50;73.50;;;;;;5024720;28;20213;-61
2023/09/08 08:08:25;;;;;;;5.15;3.50;;;33.30;75.50;;;;;;5021327;28;20219;-61
2023/09/08 08:10:52;;;;;;;3.55;3.22;;;31.90;79.30;;;;;;5021484;28;20206;-62
2023/09/08 08:13:18;;;;;;;4.60;3.53;;;30.50;83.20;;;;;;5024169;28;20224;-59
2023/09/08 08:15:47;;;;;;;4.78;3.88;;;29.30;87.00;;;;;;5025847;28;20205;-57
2023/09/08 08:18:15;;;;;;;5.57;3.97;;;28.40;90.40;;;;;;5023130;28;20316;-58
2023/09/08 08:20:41;;;;;;;6.57;3.95;;;27.70;91.60;;;;;;5022244;28;20214;-57
2023/09/08 08:23:09;;;;;;;9.52;3.88;;;27.20;92.70;;;;;;5022730;28;20207;-59
2023/09/08 08:25:35;;;;;;;4.68;3.90;;;26.70;94.00;;;;;;5024654;28;20261;-59
2023/09/08 08:28:02;;;;;;;5.60;3.65;;;26.20;95.80;;;;;;5023896;28;20219;-59
2023/09/08 08:30:29;;;;;;;4.30;3.65;;;25.60;96.80;;;;;;5021149;28;20661;-58
2023/09/08 08:32:56;;;;;;;6.20;4.38;;;25.20;98.10;;;;;;5021019;28;20492;-58
2023/09/08 08:35:24;;;;;;;6.40;4.22;;;24.90;99.20;;;;;;5023660;28;20660;-58
2023/09/08 08:37:51;;;;;;;4.60;4.15;;;24.80;99.90;;;;;;5023877;28;20226;-58
2023/09/08 08:40:18;;;;;;;8.13;4.05;;;24.70;99.90;;;;;;5021134;28;20225;-58
2023/09/08 08:42:44;;;;;;;5.82;3.97;;;24.60;99.90;;;;;;5019614;28;20226;-58
2023/09/08 08:45:12;;;;;;;9.02;3.90;;;24.50;99.90;;;;;;5021980;28;20203;-58
2023/09/08 08:47:40;;;;;;;5.20;3.80;;;24.50;99.90;;;;;;5023553;28;20223;-58
2023/09/08 08:50:11;;;;;;;5.60;4.20;;;24.40;99.90;;;;;;5022708;28;20198;-58
2023/09/08 08:52:39;;;;;;;4.65;4.13;;;24.40;99.90;;;;;;5020110;28;20215;-58
2023/09/08 08:55:07;;;;;;;5.10;3.95;;;24.40;99.90;;;;;;5021013;28;20233;-58
2023/09/08 08:57:34;;;;;;;4.63;4.03;;;24.40;99.90;;;;;;5023431;28;20222;-57
2023/09/08 09:00:04;;;;;;;4.70;3.70;;;24.50;99.90;;;;;;5023462;28;20301;-57
2023/09/08 09:02:31;;;;;;;5.40;3.95;;;24.60;99.90;;;;;;5020016;28;20576;-57
2023/09/08 09:04:58;;;;;;;5.03;3.80;;;24.70;99.90;;;;;;5021797;28;20723;-57
2023/09/08 09:07:25;;;;;;;4.43;3.58;;;24.80;99.90;;;;;;5025134;28;20226;-59
2023/09/08 09:09:54;;;;;;;4.82;3.97;;;24.80;99.90;;;;;;5026337;28;20672;-57
2023/09/08 09:12:22;;;;;;;5.05;4.30;;;24.90;99.90;;;;;;5022782;28;20210;-57
2023/09/08 09:14:49;;;;;;;6.57;3.90;;;25.00;99.90;;;;;;5021907;28;20207;-57
2023/09/08 09:17:16;;;;;;;4.78;3.97;;;25.00;99.90;;;;;;5023538;28;20211;-57
2023/09/08 09:19:43;;;;;;;4.03;3.58;;;25.00;99.90;;;;;;5024752;28;20218;-57
2023/09/08 09:22:09;;;;;;;5.40;4.00;;;25.00;99.90;;;;;;5023214;28;20588;-57
2023/09/08 09:24:40;;;;;;;6.57;3.60;;;25.20;99.90;;;;;;5021453;28;20202;-57
2023/09/08 09:27:08;;;;;;;4.53;4.05;;;25.20;99.90;;;;;;5021168;28;20203;-56
2023/09/08 09:29:44;;;;;;;5.93;4.03;;;25.40;99.90;;;;;;5023531;28;20357;-58
2023/09/08 09:32:10;;;;;;;5.15;3.75;;;25.50;99.90;;;;;;5021768;28;20213;-58
2023/09/08 09:34:48;;;;;;;5.00;3.65;;;25.60;99.90;;;;;;5019819;28;20214;-60
2023/09/08 09:37:15;;;;;;;5.32;4.07;;;25.70;99.90;;;;;;5019862;28;20238;-56
2023/09/08 09:39:42;;;;;;;5.22;3.75;;;25.80;99.90;;;;;;5019654;28;20256;-56
2023/09/08 09:42:10;;;;;;;7.70;3.90;;;26.00;99.90;;;;;;5020370;28;20199;-56
2023/09/08 09:44:37;;;;;;;5.05;4.10;;;26.20;99.90;;;;;;5023199;28;20205;-57
2023/09/08 09:47:05;;;;;;;6.43;4.13;;;26.20;99.90;;;;;;5022724;28;20602;-57
2023/09/08 09:49:32;;;;;;;6.43;4.20;;;26.30;99.90;;;;;;5019525;28;20230;-59
2023/09/08 09:51:59;;;;;;;4.65;4.10;;;26.30;99.90;;;;;;5019874;28;20262;-57
2023/09/08 09:54:26;;;;;;;4.63;3.97;;;26.50;99.90;;;;;;5021994;28;20206;-60
2023/09/08 09:56:54;;;;;;;5.88;3.92;;;26.60;99.90;;;;;;5023029;28;20209;-58
2023/09/08 09:59:23;;;;;;;7.85;4.10;;;26.70;99.90;;;;;;5020034;28;20401;-62
2023/09/08 10:01:50;;;;;;;5.45;3.80;;;26.70;99.90;;;;;;5015010;28;20619;-59
2023/09/08 10:04:17;;;;;;;4.35;3.70;;;26.90;99.90;;;;;;5021909;28;20218;-59
2023/09/08 10:06:47;;;;;;;5.18;4.05;;;27.00;99.90;;;;;;5021698;28;20202;-58
2023/09/08 10:09:16;;;;;;;7.15;4.15;;;27.00;99.90;;;;;;5020173;28;20607;-59
2023/09/08 10:11:46;;;;;;;4.05;3.67;;;27.00;99.90;;;;;;5018458;28;20210;-59
2023/09/08 10:14:15;;;;;;;4.20;3.80;;;27.20;99.90;;;;;;5018999;28;20273;-60
2023/09/08 10:16:45;;;;;;;5.80;3.90;;;27.30;99.90;;;;;;5021423;28;20206;-61
2023/09/08 10:19:12;;;;;;;4.82;4.30;;;27.40;99.90;;;;;;5019956;28;20602;-61
2023/09/08 10:21:42;;;;;;;3.97;3.58;;;27.50;99.90;;;;;;5018285;28;20217;-60
2023/09/08 10:24:15;;;;;;;6.50;4.18;;;27.50;99.90;;;;;;5019341;28;20664;-63
2023/09/08 10:26:47;;;;;;;5.63;3.70;;;27.60;99.90;;;;;;5020821;28;20640;-60
2023/09/08 10:29:14;;;;;;;4.38;3.50;;;27.70;99.90;;;;;;5021326;28;20230;-61
2023/09/08 10:31:44;;;;;;;6.88;4.05;;;27.60;99.90;;;;;;5021278;28;20206;-61
2023/09/08 10:34:11;;;;;;;4.72;3.75;;;27.60;99.90;;;;;;5021316;28;20206;-60
2023/09/08 10:36:38;;;;;;;3.80;3.50;;;27.60;99.90;;;;;;5021359;28;20199;-60
2023/09/08 10:39:31;;;;;;;4.32;3.80;;;27.70;99.90;;;;;;5021073;28;20281;-60
2023/09/08 10:42:20;;;;;;;5.15;3.70;;;27.80;99.90;;;;;;5017186;28;20210;-58
2023/09/08 10:44:57;;;;;;;6.15;3.65;;;27.90;99.90;;;;;;5017670;28;20563;-60
2023/09/08 10:47:27;;;;;;;6.00;3.72;;;28.10;99.90;;;;;;5020483;28;20679;-61
2023/09/08 10:49:57;;;;;;;6.43;3.35;;;28.20;99.90;;;;;;5021395;28;20213;-61
2023/09/08 10:52:24;;;;;;;4.20;3.80;;;28.30;99.90;;;;;;5017932;28;20627;-61
2023/09/08 10:54:52;;;;;;;4.30;3.90;;;28.30;99.90;;;;;;5017983;28;20210;-60
2023/09/08 10:57:22;;;;;;;4.70;3.65;;;28.30;99.90;;;;;;5019705;28;20265;-65
2023/09/08 10:59:53;;;;;;;4.95;3.80;;;28.40;99.90;;;;;;5021235;28;20218;-62
2023/09/08 11:02:35;;;;;;;4.00;3.53;;;28.60;99.90;;;;;;5018527;28;20745;-58
2023/09/08 11:05:04;;;;;;;6.55;3.85;;;28.60;99.90;;;;;;5018143;28;20571;-59
2023/09/08 11:07:31;;;;;;;4.53;3.75;;;28.70;99.90;;;;;;5021468;28;20340;-57
2023/09/08 11:09:58;;;;;;;6.70;3.80;;;28.80;99.90;;;;;;5021490;28;20208;-58
2023/09/08 11:12:27;;;;;;;6.03;3.60;;;28.90;99.90;;;;;;5023804;28;20218;-59
2023/09/08 11:14:54;;;;;;;6.90;3.85;;;29.10;99.90;;;;;;5024384;28;20206;-58
2023/09/08 11:17:21;;;;;;;5.18;3.63;;;29.20;99.90;;;;;;5022230;28;20226;-58
2023/09/08 11:19:50;;;;;;;4.28;3.70;;;29.30;99.90;;;;;;5021149;28;20219;-59
2023/09/08 11:22:18;;;;;;;3.97;3.20;;;29.40;99.50;;;;;;5022633;28;20290;-58
2023/09/08 11:24:45;;;;;;;4.07;3.70;;;29.40;99.30;;;;;;5024214;28;20230;-60
2023/09/08 11:27:12;;;;;;;6.07;4.25;;;29.50;99.30;;;;;;5022971;28;20209;-60
2023/09/08 11:29:40;;;;;;;4.05;3.60;;;29.70;99.40;;;;;;5016350;28;20218;-59
2023/09/08 11:32:08;;;;;;;11.68;4.88;;;29.70;99.50;;;;;;5028546;28;20206;-65
2023/09/08 11:34:35;;;;;;;3.90;3.55;;;29.90;99.30;;;;;;5032433;28;20640;-66
2023/09/08 11:37:08;;;;;;;9.85;5.20;;;30.00;99.00;;;;;;5032010;28;20675;-65
2023/09/08 11:39:38;;;;;;;8.18;3.80;;;30.00;98.80;;;;;;5032479;28;20596;-62
2023/09/08 11:42:05;;;;;;;4.57;4.03;;;30.10;98.50;;;;;;5031765;28;20242;-62
2023/09/08 11:44:32;;;;;;;5.38;3.95;;;30.20;98.50;;;;;;5024432;28;20671;-62
2023/09/08 11:46:59;;;;;;;5.68;3.78;;;29.90;98.40;;;;;;5032109;28;20210;-62
2023/09/08 11:49:26;;;;;;;5.18;3.90;;;29.80;98.40;;;;;;5031783;28;20675;-63
2023/09/08 11:51:53;;;;;;;6.32;3.90;;;29.70;98.50;;;;;;5031849;28;20210;-62
2023/09/08 11:54:21;;;;;;;4.07;3.67;;;29.80;98.50;;;;;;5031464;28;20222;-62
2023/09/08 11:56:48;;;;;;;4.65;3.65;;;29.90;98.20;;;;;;5032056;28;20213;-62
2023/09/08 11:59:15;;;;;;;3.83;3.30;;;30.00;97.80;;;;;;5031727;28;20245;-60
2023/09/08 12:01:41;;;;;;;3.30;3.00;;;30.00;97.80;;;;;;5031907;28;20206;-55
2023/09/08 12:04:18;;;;;;;15.25;12.65;;;30.10;97.80;;;;;;5023486;28;20207;-61
2023/09/08 12:06:44;;;;;;;4.68;3.92;;;30.10;97.70;;;;;;5026544;28;20203;-58
2023/09/08 12:09:12;;;;;;;3.92;3.53;;;30.20;97.70;;;;;;5021067;28;20270;-55
2023/09/08 12:11:42;;;;;;;6.13;4.75;;;30.30;97.90;;;;;;5031768;28;20218;-59
2023/09/08 12:14:10;;;;;;;6.03;4.05;;;30.30;97.50;;;;;;5031773;28;20280;-58
2023/09/08 12:16:37;;;;;;;3.97;3.58;;;30.00;97.60;;;;;;5030934;28;20210;-57
2023/09/08 12:19:04;;;;;;;4.97;4.18;;;30.00;97.80;;;;;;5022808;28;20238;-57
2023/09/08 12:21:31;;;;;;;4.93;3.92;;;29.70;98.80;;;;;;5023002;28;20222;-58
2023/09/08 12:23:58;;;;;;;4.40;4.00;;;29.70;98.60;;;;;;5031325;28;20640;-57
2023/09/08 12:26:26;;;;;;;4.22;3.83;;;29.70;98.70;;;;;;5031438;28;20214;-60
2023/09/08 12:28:54;;;;;;;5.43;3.80;;;29.70;98.50;;;;;;5031358;28;20597;-57
2023/09/08 12:31:21;;;;;;;4.30;3.90;;;29.70;98.70;;;;;;5030866;28;20214;-57
2023/09/08 12:33:47;;;;;;;6.43;4.10;;;29.80;98.40;;;;;;5030942;28;20210;-56
2023/09/08 12:36:15;;;;;;;9.05;4.07;;;29.90;98.20;;;;;;5022800;28;20672;-56
2023/09/08 12:38:42;;;;;;;6.25;4.13;;;30.10;98.30;;;;;;5030895;28;20242;-57
2023/09/08 12:41:09;;;;;;;5.15;4.00;;;30.10;98.10;;;;;;5022382;28;20775;-58
2023/09/08 12:43:35;;;;;;;7.82;3.75;;;30.20;97.80;;;;;;5030321;28;20281;-60
2023/09/08 12:46:03;;;;;;;8.02;5.05;;;30.20;98.00;;;;;;5031325;28;20218;-57
2023/09/08 12:48:30;;;;;;;4.80;4.28;;;30.20;97.70;;;;;;5027135;28;20343;-59